createdAt,value
2022-07-30T00:00:29.573Z,2.50
2022-07-30T00:02:57.784Z,1.60
2022-07-30T00:05:26.172Z,1.67
2022-07-30T00:07:54.452Z,3.20
2022-07-30T00:10:23.780Z,2.47
2022-07-30T00:12:52.965Z,1.40
2022-07-30T00:15:21.352Z,3.42
2022-07-30T00:17:51.085Z,1.77
2022-07-30T00:20:19.761Z,3.15
2022-07-30T00:22:48.091Z,3.33
2022-07-30T00:25:16.661Z,1.77
2022-07-30T00:27:45.478Z,1.83
2022-07-30T00:30:14.573Z,2.70
2022-07-30T00:32:42.899Z,1.67
2022-07-30T00:35:12.918Z,1.75
2022-07-30T00:37:41.193Z,2.00
2022-07-30T00:40:13.519Z,1.98
2022-07-30T00:42:43.911Z,1.95
2022-07-30T00:45:14.267Z,2.00
2022-07-30T00:47:43.122Z,1.60
2022-07-30T00:50:14.773Z,1.65
2022-07-30T00:52:45.232Z,1.95
2022-07-30T00:55:16.042Z,2.63
2022-07-30T00:57:45.132Z,1.70
2022-07-30T01:00:15.988Z,1.70
2022-07-30T01:02:44.354Z,2.08
2022-07-30T01:05:14.087Z,1.95
2022-07-30T01:07:42.446Z,1.40
2022-07-30T01:10:12.665Z,1.50
2022-07-30T01:12:41.387Z,3.13
2022-07-30T01:15:12.017Z,3.00
2022-07-30T01:17:40.631Z,2.30
2022-07-30T01:20:16.165Z,2.10
2022-07-30T01:22:51.828Z,2.45
2022-07-30T01:25:29.158Z,1.83
2022-07-30T01:28:03.112Z,2.17
2022-07-30T01:30:34.975Z,2.80
2022-07-30T01:33:04.347Z,1.95
2022-07-30T01:35:34.398Z,2.58
2022-07-30T01:38:05.401Z,1.73
2022-07-30T01:40:34.969Z,2.92
2022-07-30T01:43:05.063Z,1.70
2022-07-30T01:45:41.434Z,3.20
2022-07-30T01:48:14.905Z,2.35
2022-07-30T01:50:46.466Z,2.35
2022-07-30T01:53:17.987Z,1.95
2022-07-30T01:55:47.784Z,2.47
2022-07-30T01:58:20.333Z,2.28
2022-07-30T02:00:51.241Z,1.48
2022-07-30T02:03:19.647Z,1.83
2022-07-30T02:05:53.707Z,3.88
2022-07-30T02:08:29.325Z,1.58
2022-07-30T02:11:04.395Z,2.35
2022-07-30T02:13:37.036Z,2.83
2022-07-30T02:16:13.131Z,1.95
2022-07-30T02:18:58.761Z,1.77
2022-07-30T02:21:36.454Z,1.70
2022-07-30T02:24:08.658Z,2.08
2022-07-30T02:26:38.549Z,2.47
2022-07-30T02:29:11.453Z,2.42
2022-07-30T02:31:41.777Z,2.42
2022-07-30T02:34:12.060Z,2.03
2022-07-30T02:36:43.019Z,1.67
2022-07-30T02:39:11.756Z,1.88
2022-07-30T02:41:44.600Z,2.00
2022-07-30T02:44:21.336Z,1.70
2022-07-30T02:46:51.059Z,1.65
2022-07-30T02:49:21.541Z,3.47
2022-07-30T02:51:50.595Z,2.25
2022-07-30T02:54:21.274Z,1.95
2022-07-30T02:56:50.834Z,1.63
2022-07-30T02:59:22.307Z,2.15
2022-07-30T03:01:51.724Z,2.10
2022-07-30T03:04:22.281Z,1.42
2022-07-30T03:06:51.149Z,1.55
2022-07-30T03:09:21.417Z,1.90
2022-07-30T03:11:52.773Z,1.88
2022-07-30T03:14:22.548Z,2.10
2022-07-30T03:16:57.731Z,1.80
2022-07-30T03:19:30.305Z,1.67
2022-07-30T03:22:01.124Z,1.67
2022-07-30T03:24:30.174Z,1.63
2022-07-30T03:27:01.010Z,1.85
2022-07-30T03:29:32.215Z,1.55
2022-07-30T03:32:01.356Z,2.15
2022-07-30T03:34:30.624Z,1.75
2022-07-30T03:36:59.670Z,1.85
2022-07-30T03:39:28.298Z,3.45
2022-07-30T03:41:57.379Z,1.70
2022-07-30T03:44:26.399Z,2.65
2022-07-30T03:46:57.514Z,1.60
2022-07-30T03:49:26.606Z,3.45
2022-07-30T03:51:56.786Z,1.73
2022-07-30T03:54:25.673Z,1.60
2022-07-30T03:56:53.966Z,1.58
2022-07-30T03:59:22.268Z,1.13
2022-07-30T04:01:50.542Z,1.50
2022-07-30T04:04:20.303Z,1.40
2022-07-30T04:06:51.697Z,1.85
2022-07-30T04:09:20.564Z,1.20
2022-07-30T04:11:48.843Z,1.50
2022-07-30T04:14:19.167Z,1.23
2022-07-30T04:16:53.066Z,1.25
2022-07-30T04:19:26.760Z,2.15
2022-07-30T04:21:56.829Z,1.52
2022-07-30T04:24:26.114Z,2.67
2022-07-30T04:26:54.857Z,1.38
2022-07-30T04:29:24.857Z,2.92
2022-07-30T04:31:54.692Z,1.42
2022-07-30T04:34:24.592Z,2.60
2022-07-30T04:36:52.869Z,1.13
2022-07-30T04:39:21.225Z,1.45
2022-07-30T04:41:50.228Z,1.48
2022-07-30T04:44:20.034Z,1.60
2022-07-30T04:46:48.805Z,1.60
2022-07-30T04:49:18.976Z,1.05
2022-07-30T04:51:50.248Z,1.00
2022-07-30T04:54:21.736Z,1.05
2022-07-30T04:56:53.477Z,1.20
2022-07-30T04:59:25.294Z,1.30
2022-07-30T05:01:57.253Z,1.42
2022-07-30T05:04:26.811Z,1.38
2022-07-30T05:06:58.415Z,1.55
2022-07-30T05:09:27.716Z,1.20
2022-07-30T05:11:56.886Z,2.85
2022-07-30T05:14:26.344Z,1.10
2022-07-30T05:16:55.224Z,2.40
2022-07-30T05:19:23.791Z,1.33
2022-07-30T05:21:52.038Z,1.55
2022-07-30T05:24:22.094Z,1.45
2022-07-30T05:26:50.533Z,1.55
2022-07-30T05:29:19.907Z,1.55
2022-07-30T05:31:49.160Z,1.35
2022-07-30T05:34:17.799Z,1.75
2022-07-30T05:36:46.385Z,1.98
2022-07-30T05:39:16.330Z,2.50
2022-07-30T05:41:46.149Z,3.17
2022-07-30T05:44:14.404Z,1.90
2022-07-30T05:46:42.736Z,1.90
2022-07-30T05:49:11.037Z,2.40
2022-07-30T05:51:39.628Z,2.03
2022-07-30T05:54:07.883Z,2.22
2022-07-30T05:56:36.149Z,2.20
2022-07-30T05:59:06.053Z,1.92
2022-07-30T06:01:34.463Z,2.97
2022-07-30T06:04:02.830Z,2.40
2022-07-30T06:06:31.134Z,3.10
2022-07-30T06:08:59.400Z,2.33
2022-07-30T06:11:27.711Z,2.47
2022-07-30T06:13:55.967Z,2.10
2022-07-30T06:16:25.714Z,2.20
2022-07-30T06:18:54.026Z,1.90
2022-07-30T06:21:22.313Z,2.83
2022-07-30T06:23:50.597Z,2.58
2022-07-30T06:26:18.895Z,2.60
2022-07-30T06:28:47.140Z,4.13
2022-07-30T06:31:16.122Z,2.83
2022-07-30T06:33:45.986Z,2.90
2022-07-30T06:36:15.165Z,2.90
2022-07-30T06:38:43.712Z,2.95
2022-07-30T06:41:12.828Z,3.13
2022-07-30T06:43:41.041Z,3.50
2022-07-30T06:46:09.410Z,3.20
2022-07-30T06:48:38.360Z,3.03
2022-07-30T06:51:08.053Z,2.65
2022-07-30T06:53:39.973Z,2.90
2022-07-30T06:56:11.248Z,3.08
2022-07-30T06:58:39.832Z,3.67
2022-07-30T07:01:11.372Z,3.50
2022-07-30T07:03:40.729Z,2.90
2022-07-30T07:06:10.667Z,3.22
2022-07-30T07:08:39.751Z,2.95
2022-07-30T07:11:07.963Z,2.63
2022-07-30T07:13:36.225Z,3.22
2022-07-30T07:16:04.708Z,2.65
2022-07-30T07:18:32.975Z,2.58
2022-07-30T07:21:01.270Z,2.60
2022-07-30T07:23:41.947Z,2.65
2022-07-30T07:26:12.005Z,2.33
2022-07-30T07:28:41.407Z,2.72
2022-07-30T07:31:10.065Z,2.40
2022-07-30T07:33:39.495Z,2.78
2022-07-30T07:36:08.133Z,2.40
2022-07-30T07:38:37.908Z,2.47
2022-07-30T07:41:06.631Z,2.17
2022-07-30T07:43:34.847Z,2.10
2022-07-30T07:46:03.492Z,2.38
2022-07-30T07:48:31.845Z,2.60
2022-07-30T07:51:00.740Z,2.67
2022-07-30T07:53:29.691Z,2.95
2022-07-30T07:55:59.799Z,3.17
2022-07-30T07:58:28.297Z,3.10
2022-07-30T08:00:57.866Z,3.00
2022-07-30T08:03:26.167Z,3.58
2022-07-30T08:06:00.991Z,3.33
2022-07-30T08:08:36.654Z,3.08
2022-07-30T08:11:07.288Z,2.95
2022-07-30T08:13:49.228Z,2.90
2022-07-30T08:16:20.683Z,2.95
2022-07-30T08:18:49.181Z,2.75
2022-07-30T08:21:17.552Z,3.00
2022-07-30T08:23:45.875Z,3.47
2022-07-30T08:26:15.563Z,2.80
2022-07-30T08:28:45.809Z,3.08
2022-07-30T08:31:14.243Z,3.33
2022-07-30T08:33:42.523Z,3.30
2022-07-30T08:36:10.850Z,3.03
2022-07-30T08:38:40.251Z,3.30
2022-07-30T08:41:08.769Z,3.20
2022-07-30T08:43:38.895Z,3.22
2022-07-30T08:46:11.073Z,3.67
2022-07-30T08:48:40.387Z,3.10
2022-07-30T08:51:09.023Z,3.42
2022-07-30T08:53:37.768Z,3.17
2022-07-30T08:56:08.694Z,3.53
2022-07-30T08:58:38.338Z,3.88
2022-07-30T09:01:07.541Z,6.47
2022-07-30T09:03:44.132Z,3.78
2022-07-30T09:06:12.971Z,3.85
2022-07-30T09:08:41.292Z,3.88
2022-07-30T09:11:09.740Z,3.92
2022-07-30T09:13:41.756Z,3.90
2022-07-30T09:16:21.084Z,3.88
2022-07-30T09:18:50.118Z,3.35
2022-07-30T09:21:20.898Z,3.63
2022-07-30T09:24:00.185Z,3.38
2022-07-30T09:26:29.256Z,3.63
2022-07-30T09:29:17.123Z,3.70
2022-07-30T09:31:55.770Z,3.90
2022-07-30T09:34:31.988Z,3.38
2022-07-30T09:37:01.463Z,3.25
2022-07-30T09:39:33.903Z,4.22
2022-07-30T09:42:03.662Z,3.83
2022-07-30T09:44:33.687Z,3.58
2022-07-30T09:47:03.023Z,4.15
2022-07-30T09:49:32.994Z,3.80
2022-07-30T09:52:01.486Z,3.78
2022-07-30T09:54:51.511Z,3.40
2022-07-30T09:57:26.440Z,3.53
2022-07-30T09:59:59.742Z,3.58
2022-07-30T10:02:32.810Z,3.50
2022-07-30T10:05:14.419Z,3.90
2022-07-30T10:07:51.039Z,3.65
2022-07-30T10:10:25.634Z,3.50
2022-07-30T10:12:59.171Z,3.55
2022-07-30T10:15:32.399Z,3.72
2022-07-30T10:18:02.267Z,3.65
2022-07-30T10:20:34.946Z,3.55
2022-07-30T10:23:07.811Z,3.72
2022-07-30T10:25:48.859Z,3.60
2022-07-30T10:28:18.816Z,5.10
2022-07-30T10:30:51.188Z,3.78
2022-07-30T10:33:35.248Z,3.90
2022-07-30T10:36:05.368Z,3.20
2022-07-30T10:38:39.212Z,3.15
2022-07-30T10:41:16.325Z,3.42
2022-07-30T10:44:15.912Z,3.42
2022-07-30T10:46:53.415Z,3.90
2022-07-30T10:49:21.887Z,3.55
2022-07-30T10:51:52.482Z,3.92
2022-07-30T10:54:40.884Z,3.50
2022-07-30T10:57:15.039Z,3.85
2022-07-30T11:00:15.235Z,3.55
2022-07-30T11:03:23.462Z,3.80
2022-07-30T11:05:52.979Z,3.70
2022-07-30T11:08:35.971Z,3.42
2022-07-30T11:11:19.362Z,3.50
2022-07-30T11:13:54.665Z,3.60
2022-07-30T11:16:25.448Z,3.70
2022-07-30T11:19:56.365Z,3.75
2022-07-30T11:22:31.499Z,3.60
2022-07-30T11:25:04.510Z,3.65
2022-07-30T11:27:45.474Z,4.03
2022-07-30T11:30:42.139Z,3.80
2022-07-30T11:33:33.136Z,3.78
2022-07-30T11:36:12.051Z,3.95
2022-07-30T11:39:03.348Z,4.40
2022-07-30T11:41:35.275Z,4.10
2022-07-30T11:44:29.448Z,4.60
2022-07-30T11:46:58.914Z,3.50
2022-07-30T11:49:35.488Z,3.60
2022-07-30T11:52:05.628Z,3.90
2022-07-30T11:54:33.857Z,4.00
2022-07-30T11:57:04.619Z,4.50
2022-07-30T11:59:33.244Z,4.22
2022-07-30T12:02:02.168Z,4.20
2022-07-30T12:04:31.165Z,4.00
2022-07-30T12:06:59.813Z,4.20
2022-07-30T12:09:29.884Z,3.83
2022-07-30T12:11:58.600Z,4.05
2022-07-30T12:14:38.349Z,4.13
2022-07-30T12:17:06.706Z,4.38
2022-07-30T12:19:47.482Z,3.90
2022-07-30T12:22:16.701Z,4.15
2022-07-30T12:24:46.388Z,3.92
2022-07-30T12:27:14.687Z,4.40
2022-07-30T12:29:43.073Z,3.70
2022-07-30T12:32:11.400Z,3.65
2022-07-30T12:34:39.623Z,3.50
2022-07-30T12:37:11.540Z,3.88
2022-07-30T12:39:40.513Z,3.75
2022-07-30T12:42:19.880Z,3.90
2022-07-30T12:44:49.409Z,3.85
2022-07-30T12:47:22.095Z,3.75
2022-07-30T12:49:53.299Z,4.93
2022-07-30T12:52:28.311Z,4.82
2022-07-30T12:55:02.810Z,4.10
2022-07-30T12:57:54.052Z,4.03
2022-07-30T13:00:22.868Z,3.90
2022-07-30T13:02:51.276Z,4.35
2022-07-30T13:05:19.659Z,3.50
2022-07-30T13:07:57.975Z,3.78
2022-07-30T13:10:31.094Z,3.65
2022-07-30T13:13:02.462Z,3.60
2022-07-30T13:15:30.960Z,3.75
2022-07-30T13:17:59.233Z,3.55
2022-07-30T13:20:28.089Z,4.85
2022-07-30T13:23:01.497Z,4.30
2022-07-30T13:25:38.684Z,4.20
2022-07-30T13:28:09.745Z,4.60
2022-07-30T13:30:38.123Z,4.28
2022-07-30T13:33:06.324Z,4.40
2022-07-30T13:35:34.563Z,4.30
2022-07-30T13:38:02.818Z,4.82
2022-07-30T13:40:32.845Z,5.10
2022-07-30T13:43:01.319Z,5.78
2022-07-30T13:45:31.585Z,5.38
2022-07-30T13:47:59.917Z,5.57
2022-07-30T13:50:28.195Z,5.32
2022-07-30T13:53:01.815Z,5.43
2022-07-30T13:55:30.767Z,5.50
2022-07-30T13:57:59.155Z,5.60
2022-07-30T14:00:32.385Z,4.88
2022-07-30T14:03:02.880Z,4.30
2022-07-30T14:05:31.259Z,4.45
2022-07-30T14:07:59.579Z,3.78
2022-07-30T14:10:29.857Z,3.75
2022-07-30T14:13:00.019Z,5.22
2022-07-30T14:15:31.057Z,4.40
2022-07-30T14:18:00.249Z,4.90
2022-07-30T14:20:30.489Z,4.25
2022-07-30T14:22:58.848Z,5.57
2022-07-30T14:25:27.135Z,6.18
2022-07-30T14:27:55.485Z,6.20
2022-07-30T14:30:24.617Z,6.07
2022-07-30T14:32:59.221Z,5.65
2022-07-30T14:35:31.341Z,5.43
2022-07-30T14:37:59.642Z,8.27
2022-07-30T14:40:27.878Z,5.00
2022-07-30T14:42:56.351Z,5.22
2022-07-30T14:45:25.511Z,4.57
2022-07-30T14:47:54.220Z,4.57
2022-07-30T14:50:22.632Z,4.93
2022-07-30T14:52:52.267Z,4.40
2022-07-30T14:55:20.536Z,3.63
2022-07-30T14:57:49.210Z,3.90
2022-07-30T15:00:18.092Z,4.47
2022-07-30T15:02:47.636Z,4.05
2022-07-30T15:05:16.109Z,5.07
2022-07-30T15:07:44.255Z,4.80
2022-07-30T15:10:14.038Z,4.35
2022-07-30T15:12:44.111Z,4.72
2022-07-30T15:15:12.987Z,3.78
2022-07-30T15:17:42.943Z,4.35
2022-07-30T15:20:12.316Z,4.97
2022-07-30T15:22:40.700Z,5.63
2022-07-30T15:25:09.940Z,6.22
2022-07-30T15:27:39.616Z,5.95
2022-07-30T15:30:08.968Z,5.88
2022-07-30T15:32:37.517Z,5.95
2022-07-30T15:35:09.457Z,5.90
2022-07-30T15:37:41.763Z,6.57
2022-07-30T15:40:10.732Z,6.18
2022-07-30T15:42:41.124Z,6.00
2022-07-30T15:45:18.510Z,6.10
2022-07-30T15:47:47.592Z,5.72
2022-07-30T15:50:17.206Z,6.05
2022-07-30T15:52:45.832Z,6.47
2022-07-30T15:55:14.274Z,5.95
2022-07-30T15:57:44.402Z,6.57
2022-07-30T16:00:13.503Z,6.20
2022-07-30T16:02:43.000Z,6.30
2022-07-30T16:05:14.086Z,6.88
2022-07-30T16:07:42.856Z,7.63
2022-07-30T16:10:11.853Z,7.20
2022-07-30T16:12:42.042Z,6.85
2022-07-30T16:15:12.312Z,7.13
2022-07-30T16:17:40.619Z,6.68
2022-07-30T16:20:10.305Z,6.40
2022-07-30T16:22:38.568Z,6.50
2022-07-30T16:25:07.817Z,6.05
2022-07-30T16:27:36.080Z,6.00
2022-07-30T16:30:04.477Z,6.10
2022-07-30T16:32:34.133Z,6.10
2022-07-30T16:35:02.574Z,6.03
2022-07-30T16:37:30.813Z,6.88
2022-07-30T16:39:59.059Z,6.10
2022-07-30T16:42:27.297Z,6.50
2022-07-30T16:44:55.521Z,6.38
2022-07-30T16:47:23.767Z,5.88
2022-07-30T16:49:53.486Z,5.80
2022-07-30T16:52:21.784Z,5.82
2022-07-30T16:54:54.937Z,5.80
2022-07-30T16:57:23.393Z,6.13
2022-07-30T16:59:51.629Z,6.10
2022-07-30T17:02:19.935Z,5.80
2022-07-30T17:04:48.180Z,6.10
2022-07-30T17:07:17.956Z,5.80
2022-07-30T17:09:50.976Z,6.07
2022-07-30T17:12:23.971Z,6.35
2022-07-30T17:14:55.497Z,6.43
2022-07-30T17:17:23.737Z,7.07
2022-07-30T17:19:51.982Z,6.43
2022-07-30T17:22:21.807Z,6.68
2022-07-30T17:24:50.038Z,6.70
2022-07-30T17:27:18.301Z,7.03
2022-07-30T17:29:49.884Z,6.63
2022-07-30T17:32:19.584Z,6.20
2022-07-30T17:34:48.044Z,5.97
2022-07-30T17:37:16.750Z,6.68
2022-07-30T17:40:27.064Z,6.22
2022-07-30T17:42:34.869Z,5.80
2022-07-30T17:45:05.058Z,5.78
2022-07-30T17:47:33.855Z,6.32
2022-07-30T17:50:02.675Z,6.55
2022-07-30T17:52:30.918Z,6.28
2022-07-30T17:55:00.581Z,6.13
2022-07-30T17:57:28.939Z,6.60
2022-07-30T17:59:57.357Z,6.10
2022-07-30T18:02:27.467Z,6.70
2022-07-30T18:04:57.065Z,6.15
2022-07-30T18:07:25.567Z,6.15
2022-07-30T18:09:53.851Z,6.53
2022-07-30T18:12:23.545Z,6.70
2022-07-30T18:14:52.044Z,6.80
2022-07-30T18:17:20.321Z,6.68
2022-07-30T18:19:48.550Z,6.65
2022-07-30T18:22:29.443Z,6.75
2022-07-30T18:25:00.304Z,6.53
2022-07-30T18:27:30.066Z,6.80
2022-07-30T18:29:58.525Z,6.63
2022-07-30T18:32:26.828Z,6.50
2022-07-30T18:34:55.117Z,6.85
2022-07-30T18:37:23.543Z,7.15
2022-07-30T18:39:51.801Z,6.65
2022-07-30T18:42:20.080Z,6.53
2022-07-30T18:44:49.716Z,7.20
2022-07-30T18:47:18.557Z,6.47
2022-07-30T18:49:52.036Z,6.78
2022-07-30T18:52:20.263Z,7.50
2022-07-30T18:54:48.981Z,6.85
2022-07-30T18:57:17.209Z,6.60
2022-07-30T18:59:45.525Z,6.68
2022-07-30T19:02:15.230Z,6.60
2022-07-30T19:04:43.499Z,6.53
2022-07-30T19:07:11.788Z,7.00
2022-07-30T19:09:40.075Z,7.60
2022-07-30T19:12:08.854Z,7.03
2022-07-30T19:14:37.195Z,7.07
2022-07-30T19:17:13.599Z,7.15
2022-07-30T19:19:43.973Z,7.78
2022-07-30T19:22:12.235Z,7.25
2022-07-30T19:24:40.488Z,7.47
2022-07-30T19:27:13.741Z,7.35
2022-07-30T19:29:43.528Z,7.93
2022-07-30T19:32:12.340Z,6.82
2022-07-30T19:34:43.379Z,6.65
2022-07-30T19:37:13.036Z,6.88
2022-07-30T19:40:05.087Z,7.05
2022-07-30T19:42:29.565Z,7.10
2022-07-30T19:44:59.018Z,6.97
2022-07-30T19:47:29.720Z,7.72
2022-07-30T19:50:10.119Z,7.13
2022-07-30T19:52:51.246Z,7.65
2022-07-30T19:55:35.059Z,7.95
2022-07-30T19:58:05.058Z,7.20
2022-07-30T20:00:48.505Z,7.45
2022-07-30T20:03:25.728Z,7.50
2022-07-30T20:05:58.512Z,6.80
2022-07-30T20:08:29.549Z,6.70
2022-07-30T20:10:59.323Z,6.60
2022-07-30T20:13:44.485Z,6.22
2022-07-30T20:16:14.270Z,6.30
2022-07-30T20:18:43.525Z,5.50
2022-07-30T20:21:15.386Z,5.15
2022-07-30T20:23:46.410Z,4.38
2022-07-30T20:26:16.034Z,4.20
2022-07-30T20:28:52.442Z,4.32
2022-07-30T20:31:21.997Z,4.00
2022-07-30T20:33:50.916Z,4.10
2022-07-30T20:36:19.498Z,4.30
2022-07-30T20:38:49.406Z,3.97
2022-07-30T20:41:18.190Z,3.95
2022-07-30T20:43:52.446Z,3.80
2022-07-30T20:46:23.768Z,3.58
2022-07-30T20:48:52.871Z,3.38
2022-07-30T20:51:21.651Z,3.70
2022-07-30T20:54:03.349Z,3.63
2022-07-30T20:56:31.595Z,3.60
2022-07-30T20:58:59.868Z,3.80
2022-07-30T21:01:30.704Z,3.97
2022-07-30T21:03:59.283Z,3.83
2022-07-30T21:06:27.671Z,3.45
2022-07-30T21:08:56.785Z,3.40
2022-07-30T21:11:26.881Z,3.40
2022-07-30T21:13:55.171Z,3.50
2022-07-30T21:16:25.426Z,4.35
2022-07-30T21:18:53.714Z,3.80
2022-07-30T21:21:30.438Z,3.67
2022-07-30T21:24:11.822Z,3.55
2022-07-30T21:26:42.897Z,3.75
2022-07-30T21:29:11.371Z,3.85
2022-07-30T21:32:01.998Z,3.80
2022-07-30T21:34:35.230Z,3.70
2022-07-30T21:37:08.829Z,4.00
2022-07-30T21:39:40.199Z,3.63
2022-07-30T21:42:10.250Z,4.07
2022-07-30T21:44:39.367Z,4.22
2022-07-30T21:47:10.873Z,3.83
2022-07-30T21:49:39.738Z,4.40
2022-07-30T21:52:09.102Z,4.30
2022-07-30T21:54:48.010Z,4.00
2022-07-30T21:57:26.321Z,4.35
2022-07-30T21:59:58.602Z,4.30
2022-07-30T22:02:28.086Z,4.22
2022-07-30T22:04:56.576Z,4.00
2022-07-30T22:07:27.425Z,4.43
2022-07-30T22:09:55.689Z,4.22
2022-07-30T22:12:29.050Z,4.50
2022-07-30T22:14:59.656Z,3.85
2022-07-30T22:17:36.921Z,3.60
2022-07-30T22:20:17.925Z,4.05
2022-07-30T22:22:47.550Z,3.70
2022-07-30T22:25:16.843Z,3.92
2022-07-30T22:27:56.796Z,4.07
2022-07-30T22:30:26.805Z,3.38
2022-07-30T22:32:55.473Z,3.70
2022-07-30T22:35:32.004Z,3.88
2022-07-30T22:38:01.805Z,3.80
2022-07-30T22:40:30.090Z,3.60
2022-07-30T22:43:00.115Z,3.78
2022-07-30T22:45:46.515Z,4.05
2022-07-30T22:48:19.266Z,4.35
2022-07-30T22:50:52.335Z,4.25
2022-07-30T22:54:11.360Z,4.38
2022-07-30T22:56:14.352Z,4.10
2022-07-30T22:58:48.726Z,4.03
2022-07-30T23:01:17.177Z,4.10
2022-07-30T23:03:45.974Z,4.70
2022-07-30T23:06:16.549Z,4.55
2022-07-30T23:08:44.868Z,4.35
2022-07-30T23:11:13.238Z,4.80
2022-07-30T23:13:42.588Z,4.50
2022-07-30T23:16:12.332Z,4.40
2022-07-30T23:18:40.614Z,4.78
2022-07-30T23:21:09.945Z,4.22
2022-07-30T23:23:38.204Z,4.72
2022-07-30T23:26:06.493Z,4.75
2022-07-30T23:28:34.758Z,4.60
2022-07-30T23:31:03.574Z,4.95
2022-07-30T23:33:33.622Z,4.35
2022-07-30T23:36:02.040Z,4.25
2022-07-30T23:38:30.669Z,4.97
2022-07-30T23:41:01.361Z,5.18
2022-07-30T23:43:29.991Z,4.65
2022-07-30T23:45:58.569Z,4.95
2022-07-30T23:48:26.903Z,4.80
2022-07-30T23:50:57.016Z,4.68
2022-07-30T23:53:25.610Z,4.82
2022-07-30T23:55:53.936Z,5.45
2022-07-30T23:58:22.110Z,4.90
